Time;durP1;ratioP1;P1;durP2;ratioP2;P2;SDS_P1;SDS_P2;PMS_P1;PMS_P2;Temp;Humidity;BMP_temperature;BMP_pressure;BME280_temperature;BME280_humidity;BME280_pressure;Samples;Min_cycle;Max_cycle;Signal;HPM_P1;HPM_P2
2021/11/30 00:01:09;;;;;;;22.00;13.97;;;3.40;99.90;;;;;;5060809;28;20815;-62
2021/11/30 00:03:40;;;;;;;20.13;14.77;;;3.40;99.90;;;;;;5060762;28;20855;-62
2021/11/30 00:06:09;;;;;;;18.40;14.30;;;3.50;99.90;;;;;;5060805;28;20454;-62
2021/11/30 00:08:37;;;;;;;19.00;14.57;;;3.40;99.90;;;;;;5060163;28;20573;-62
2021/11/30 00:11:06;;;;;;;17.53;13.67;;;3.40;99.90;;;;;;5059876;28;20466;-62
2021/11/30 00:13:35;;;;;;;17.40;14.03;;;3.50;99.90;;;;;;5060571;28;20458;-62
2021/11/30 00:16:03;;;;;;;19.73;14.10;;;3.40;99.90;;;;;;5060242;28;20494;-62
2021/11/30 00:18:33;;;;;;;20.63;13.67;;;3.50;99.90;;;;;;5059516;28;20462;-62
2021/11/30 00:21:06;;;;;;;19.23;14.23;;;3.50;99.90;;;;;;5059641;28;20908;-62
2021/11/30 00:23:38;;;;;;;18.17;14.20;;;3.50;99.90;;;;;;5060054;28;20505;-62
2021/11/30 00:26:06;;;;;;;15.07;12.80;;;3.50;99.90;;;;;;5060132;28;20942;-62
2021/11/30 00:28:34;;;;;;;19.63;15.13;;;3.40;99.90;;;;;;5060074;28;20572;-62
2021/11/30 00:31:03;;;;;;;19.03;14.10;;;3.40;99.90;;;;;;5059481;28;20561;-62
2021/11/30 00:33:30;;;;;;;15.10;12.53;;;3.40;99.90;;;;;;5060034;28;20475;-62
2021/11/30 00:36:02;;;;;;;22.30;13.10;;;3.50;99.90;;;;;;5059911;28;20549;-62
2021/11/30 00:38:30;;;;;;;22.70;14.47;;;3.40;99.90;;;;;;5059290;28;20742;-62
2021/11/30 00:40:58;;;;;;;23.60;13.10;;;3.40;99.90;;;;;;5059129;28;20466;-62
2021/11/30 00:43:32;;;;;;;17.80;14.27;;;3.40;99.90;;;;;;5059150;28;20467;-62
2021/11/30 00:46:09;;;;;;;18.20;14.33;;;3.40;99.90;;;;;;5060577;28;20463;-62
2021/11/30 00:48:36;;;;;;;16.67;14.87;;;3.40;99.90;;;;;;5069418;28;20467;-62
2021/11/30 00:51:09;;;;;;;16.43;14.00;;;3.40;99.90;;;;;;5066335;28;20987;-62
2021/11/30 00:53:38;;;;;;;19.00;14.73;;;3.40;99.90;;;;;;5060153;28;20485;-62
2021/11/30 00:56:09;;;;;;;18.70;13.40;;;3.30;99.90;;;;;;5059527;28;20454;-62
2021/11/30 00:58:39;;;;;;;19.83;15.30;;;3.30;99.90;;;;;;5059890;28;20556;-62
2021/11/30 01:01:07;;;;;;;22.57;14.33;;;3.30;99.90;;;;;;5059504;28;20918;-62
2021/11/30 01:03:38;;;;;;;23.27;16.43;;;3.30;99.90;;;;;;5059468;28;20533;-62
2021/11/30 01:06:08;;;;;;;23.20;13.67;;;3.30;99.90;;;;;;5060018;28;20461;-62
2021/11/30 01:08:36;;;;;;;20.20;14.40;;;3.20;99.90;;;;;;5059276;28;20956;-62
2021/11/30 01:11:04;;;;;;;28.17;14.30;;;3.20;99.90;;;;;;5058915;28;20826;-62
2021/11/30 01:13:34;;;;;;;20.60;14.90;;;3.10;99.90;;;;;;5059404;28;20437;-62
2021/11/30 01:16:03;;;;;;;18.20;12.73;;;3.10;99.90;;;;;;5059329;28;20556;-61
2021/11/30 01:18:30;;;;;;;18.00;12.73;;;3.10;99.90;;;;;;5059537;28;20489;-62
2021/11/30 01:20:59;;;;;;;15.03;11.27;;;3.10;99.90;;;;;;5058457;28;20691;-61
2021/11/30 01:23:31;;;;;;;20.00;13.53;;;3.10;99.90;;;;;;5059293;28;20549;-62
2021/11/30 01:26:00;;;;;;;19.13;13.10;;;3.10;99.90;;;;;;5059084;28;20556;-62
2021/11/30 01:28:28;;;;;;;17.40;12.23;;;3.10;99.90;;;;;;5059232;28;20558;-62
2021/11/30 01:31:01;;;;;;;17.67;12.13;;;3.00;99.90;;;;;;5058340;28;20462;-62
2021/11/30 01:33:29;;;;;;;17.27;12.10;;;3.10;99.90;;;;;;5058505;28;20576;-62
2021/11/30 01:35:56;;;;;;;16.63;13.43;;;3.10;99.90;;;;;;5058300;28;20500;-62
2021/11/30 01:38:27;;;;;;;18.30;12.37;;;3.00;99.90;;;;;;5057753;28;20923;-62
2021/11/30 01:40:55;;;;;;;17.63;12.23;;;3.10;99.90;;;;;;5058133;28;20907;-62
2021/11/30 01:43:25;;;;;;;23.57;12.60;;;3.00;99.90;;;;;;5059184;28;20900;-62
2021/11/30 01:46:00;;;;;;;19.53;12.83;;;3.10;99.90;;;;;;5058379;28;20466;-62
2021/11/30 01:51:13;;;;;;;26.97;12.13;;;3.00;99.90;;;;;;5058159;28;20754;-62
2021/11/30 01:53:44;;;;;;;16.80;11.40;;;3.00;99.90;;;;;;5058245;28;20785;-62
2021/11/30 01:56:11;;;;;;;19.77;12.37;;;3.00;99.90;;;;;;5058021;28;20770;-62
2021/11/30 01:58:38;;;;;;;18.60;11.30;;;3.00;99.90;;;;;;5058964;28;20504;-62
2021/11/30 02:01:06;;;;;;;22.97;11.80;;;2.90;99.90;;;;;;5058551;28;20561;-61
2021/11/30 02:03:34;;;;;;;12.70;9.53;;;2.90;99.90;;;;;;5057304;28;20497;-62
2021/11/30 02:06:02;;;;;;;21.70;11.23;;;2.90;99.90;;;;;;5058593;28;20466;-62
2021/11/30 02:08:29;;;;;;;16.90;10.33;;;2.90;99.90;;;;;;5058226;28;20462;-61
2021/11/30 02:11:00;;;;;;;24.97;11.03;;;2.90;99.90;;;;;;5058719;28;20500;-62
2021/11/30 02:13:28;;;;;;;16.10;8.20;;;2.90;99.90;;;;;;5058746;28;20534;-61
2021/11/30 02:15:56;;;;;;;15.63;9.07;;;2.90;99.90;;;;;;5058180;28;20513;-62
2021/11/30 02:18:24;;;;;;;13.40;8.63;;;2.90;99.90;;;;;;5058208;28;21002;-62
2021/11/30 02:20:55;;;;;;;18.57;9.30;;;3.00;99.90;;;;;;5057982;28;20473;-61
2021/11/30 02:23:40;;;;;;;12.93;8.73;;;2.90;99.90;;;;;;5058676;28;20976;-62
2021/11/30 02:26:11;;;;;;;11.00;7.77;;;3.00;99.90;;;;;;5058139;28;20477;-61
2021/11/30 02:28:44;;;;;;;12.13;7.27;;;2.90;99.90;;;;;;5058872;28;20458;-61
2021/11/30 02:31:13;;;;;;;12.50;8.07;;;2.90;99.90;;;;;;5058795;28;20478;-61
2021/11/30 02:33:44;;;;;;;17.13;8.63;;;2.80;99.90;;;;;;5058956;28;20776;-61
2021/11/30 02:36:24;;;;;;;13.20;7.53;;;2.80;99.90;;;;;;5058153;28;20469;-61
2021/11/30 02:38:51;;;;;;;13.50;7.23;;;2.70;99.90;;;;;;5038618;28;20905;-61
2021/11/30 02:41:19;;;;;;;13.70;8.37;;;2.70;99.90;;;;;;5054465;28;20868;-62
2021/11/30 02:43:49;;;;;;;18.53;8.67;;;2.70;99.90;;;;;;5058460;28;20462;-62
2021/11/30 02:46:31;;;;;;;12.43;6.80;;;2.60;99.90;;;;;;5057969;28;20560;-62
2021/11/30 02:48:59;;;;;;;14.40;7.60;;;2.60;99.90;;;;;;5058400;28;20457;-63
2021/11/30 02:51:30;;;;;;;12.40;8.00;;;2.60;99.90;;;;;;5061090;28;20564;-63
2021/11/30 02:54:00;;;;;;;12.10;7.47;;;2.50;99.90;;;;;;5061404;28;20466;-63
2021/11/30 02:56:27;;;;;;;10.60;7.83;;;2.40;99.90;;;;;;5061158;28;20461;-63
2021/11/30 02:58:55;;;;;;;14.60;7.30;;;2.40;99.90;;;;;;5061247;28;20818;-63
2021/11/30 03:01:26;;;;;;;14.90;8.07;;;2.40;99.90;;;;;;5061483;28;20998;-63
2021/11/30 03:03:53;;;;;;;13.53;8.13;;;2.40;99.90;;;;;;5061209;28;20493;-63
2021/11/30 03:06:20;;;;;;;16.57;7.50;;;2.30;99.90;;;;;;5060893;28;20469;-63
2021/11/30 03:08:49;;;;;;;12.60;7.93;;;2.30;99.90;;;;;;5060314;28;20508;-63
2021/11/30 03:11:19;;;;;;;9.80;7.20;;;2.30;99.90;;;;;;5060128;28;20481;-63
2021/11/30 03:13:49;;;;;;;11.33;7.43;;;2.20;99.90;;;;;;5061194;28;20840;-63
2021/11/30 03:16:19;;;;;;;13.80;7.37;;;2.30;99.90;;;;;;5061181;28;20909;-64
2021/11/30 03:18:47;;;;;;;11.50;7.93;;;2.20;99.90;;;;;;5060777;28;20609;-63
2021/11/30 03:21:14;;;;;;;18.47;8.70;;;2.20;99.90;;;;;;5061403;28;20956;-64
2021/11/30 03:23:42;;;;;;;13.83;8.00;;;2.20;99.90;;;;;;5060897;28;20533;-64
2021/11/30 03:26:11;;;;;;;13.77;7.40;;;2.20;99.90;;;;;;5060843;28;20465;-64
2021/11/30 03:28:41;;;;;;;11.83;8.10;;;2.10;99.90;;;;;;5060778;28;20458;-64
2021/11/30 03:31:08;;;;;;;13.00;9.03;;;2.10;99.90;;;;;;5060572;28;20459;-64
2021/11/30 03:36:23;;;;;;;13.90;9.43;;;2.00;99.90;;;;;;5057506;28;20437;-64
2021/11/30 03:38:51;;;;;;;10.90;8.27;;;2.00;99.90;;;;;;5060739;28;20591;-64
2021/11/30 03:41:23;;;;;;;10.03;7.07;;;1.90;99.90;;;;;;5060107;28;20459;-64
2021/11/30 03:43:50;;;;;;;8.43;7.30;;;2.00;99.90;;;;;;5060879;28;20497;-64
2021/11/30 03:46:18;;;;;;;9.90;7.30;;;2.00;99.90;;;;;;5060178;28;20473;-64
2021/11/30 03:48:45;;;;;;;8.97;6.80;;;1.90;99.90;;;;;;5060490;28;20493;-64
2021/11/30 03:51:13;;;;;;;8.00;7.00;;;1.90;99.90;;;;;;5060272;28;20553;-64
2021/11/30 03:53:40;;;;;;;8.10;6.77;;;1.90;99.90;;;;;;5060919;28;20557;-64
2021/11/30 03:56:08;;;;;;;7.40;6.40;;;1.80;99.90;;;;;;5060799;28;20553;-64
2021/11/30 03:58:37;;;;;;;7.87;7.07;;;1.80;99.90;;;;;;5060043;28;20581;-65
2021/11/30 04:01:04;;;;;;;7.70;6.63;;;1.80;99.90;;;;;;5058737;28;20569;-65
2021/11/30 04:03:33;;;;;;;7.10;6.40;;;1.80;99.90;;;;;;5059427;28;20464;-65
2021/11/30 04:06:02;;;;;;;7.43;6.83;;;1.80;99.90;;;;;;5059962;28;20547;-65
2021/11/30 04:08:32;;;;;;;7.50;6.10;;;1.80;99.90;;;;;;5058894;28;20459;-66
2021/11/30 04:11:00;;;;;;;7.20;6.50;;;1.70;99.90;;;;;;5057451;28;20467;-66
2021/11/30 04:13:27;;;;;;;6.40;5.80;;;1.70;99.90;;;;;;5058999;28;20792;-66
2021/11/30 04:15:56;;;;;;;6.90;6.07;;;1.80;99.90;;;;;;5058689;28;20899;-66
2021/11/30 04:18:24;;;;;;;5.93;5.33;;;1.70;99.90;;;;;;5057786;28;20494;-66
2021/11/30 04:20:51;;;;;;;7.33;5.87;;;1.70;99.90;;;;;;5058605;28;20825;-66
2021/11/30 04:23:19;;;;;;;5.87;5.33;;;1.70;99.90;;;;;;5058501;28;20598;-66
2021/11/30 04:25:46;;;;;;;5.60;5.00;;;1.70;99.90;;;;;;5058657;28;20501;-67
2021/11/30 04:28:14;;;;;;;7.10;5.30;;;1.70;99.90;;;;;;5057852;28;20552;-68
2021/11/30 04:30:41;;;;;;;6.17;5.57;;;1.70;99.90;;;;;;5058293;28;20505;-68
2021/11/30 04:33:10;;;;;;;5.83;4.10;;;1.70;99.90;;;;;;5058369;28;20459;-67
2021/11/30 04:35:38;;;;;;;3.90;3.50;;;1.70;99.90;;;;;;5058336;28;20486;-67
2021/11/30 04:38:05;;;;;;;4.67;4.27;;;1.70;99.90;;;;;;5057569;28;20536;-67
2021/11/30 04:40:33;;;;;;;4.77;4.37;;;1.70;99.90;;;;;;5058244;28;20523;-67
2021/11/30 04:43:01;;;;;;;4.47;4.07;;;1.60;99.90;;;;;;5057846;28;21006;-67
2021/11/30 04:45:33;;;;;;;4.67;4.17;;;1.70;99.90;;;;;;5058593;28;20530;-67
2021/11/30 04:48:00;;;;;;;3.93;3.53;;;1.80;99.90;;;;;;5057193;28;20642;-66
2021/11/30 04:50:32;;;;;;;4.00;3.50;;;1.80;99.90;;;;;;5057551;28;20509;-66
2021/11/30 04:53:00;;;;;;;3.70;3.27;;;1.90;99.90;;;;;;5057559;28;20470;-66
2021/11/30 04:55:32;;;;;;;3.80;3.40;;;1.90;99.90;;;;;;5058173;28;20515;-66
2021/11/30 04:58:01;;;;;;;3.03;2.60;;;2.00;99.90;;;;;;5058322;28;20920;-66
2021/11/30 05:00:30;;;;;;;3.70;3.30;;;2.00;99.90;;;;;;5057932;28;20469;-65
2021/11/30 05:02:58;;;;;;;3.40;2.87;;;2.10;99.90;;;;;;5058269;28;20548;-65
2021/11/30 05:05:25;;;;;;;3.33;3.03;;;2.10;99.90;;;;;;5058943;28;20548;-65
2021/11/30 05:07:54;;;;;;;3.30;3.00;;;2.20;99.90;;;;;;5059935;28;20459;-65
2021/11/30 05:10:21;;;;;;;3.40;2.90;;;2.30;99.90;;;;;;5058607;28;20553;-65
2021/11/30 05:12:48;;;;;;;4.03;3.40;;;2.30;99.90;;;;;;5058458;28;20490;-65
2021/11/30 05:15:19;;;;;;;4.40;3.90;;;2.50;99.90;;;;;;5058905;28;20560;-65
2021/11/30 05:17:46;;;;;;;4.93;4.47;;;2.50;99.90;;;;;;5058971;28;20585;-64
2021/11/30 05:20:16;;;;;;;5.10;3.80;;;2.60;99.90;;;;;;5057585;28;20521;-64
2021/11/30 05:22:43;;;;;;;5.67;4.67;;;2.70;99.90;;;;;;5058163;28;20470;-64
2021/11/30 05:25:12;;;;;;;4.93;4.43;;;2.70;99.90;;;;;;5058141;28;20437;-64
2021/11/30 05:27:41;;;;;;;4.43;3.73;;;2.80;99.90;;;;;;5056348;28;20512;-65
2021/11/30 05:30:13;;;;;;;4.63;4.27;;;2.90;99.90;;;;;;5057637;28;20470;-65
2021/11/30 05:32:41;;;;;;;5.73;4.87;;;2.90;99.90;;;;;;5037532;28;20475;-65
2021/11/30 05:35:09;;;;;;;5.20;4.70;;;3.00;99.90;;;;;;5052945;28;20498;-65
2021/11/30 05:37:39;;;;;;;6.40;5.80;;;3.10;99.90;;;;;;5057438;28;20459;-65
2021/11/30 05:40:08;;;;;;;5.00;4.50;;;3.20;99.90;;;;;;5058274;28;20830;-65
2021/11/30 05:42:39;;;;;;;5.93;5.33;;;3.20;99.90;;;;;;5057504;28;20554;-65
2021/11/30 05:45:09;;;;;;;5.77;5.27;;;3.30;99.90;;;;;;5058282;28;20462;-64
2021/11/30 05:47:36;;;;;;;5.73;5.23;;;3.30;99.90;;;;;;5058885;28;20466;-64
2021/11/30 05:50:04;;;;;;;6.20;5.60;;;3.40;99.90;;;;;;5077182;28;20460;-64
2021/11/30 05:52:34;;;;;;;5.83;5.33;;;3.40;99.90;;;;;;5055069;28;20938;-65
2021/11/30 05:55:05;;;;;;;6.80;6.17;;;3.50;99.90;;;;;;5057490;28;20502;-64
2021/11/30 05:57:34;;;;;;;6.33;5.73;;;3.50;99.90;;;;;;5058071;28;20462;-64
2021/11/30 06:00:05;;;;;;;7.63;6.67;;;3.50;99.90;;;;;;5058123;28;20573;-65
2021/11/30 06:02:51;;;;;;;6.67;5.97;;;3.60;99.90;;;;;;5057678;28;20553;-64
2021/11/30 06:05:20;;;;;;;7.30;6.60;;;3.60;99.90;;;;;;5057698;28;20940;-65
2021/11/30 06:07:51;;;;;;;8.17;7.37;;;3.70;99.90;;;;;;5058273;28;20535;-65
2021/11/30 06:10:20;;;;;;;8.00;7.20;;;3.70;99.90;;;;;;5057070;28;20458;-65
2021/11/30 06:12:52;;;;;;;6.57;5.90;;;3.80;99.90;;;;;;5056859;28;20935;-64
2021/11/30 06:15:23;;;;;;;5.97;5.33;;;3.80;99.90;;;;;;5057732;28;20462;-64
2021/11/30 06:17:50;;;;;;;6.77;6.17;;;3.80;99.90;;;;;;5049888;28;20466;-64
2021/11/30 06:20:17;;;;;;;5.97;5.37;;;3.90;99.90;;;;;;5057020;28;20509;-64
2021/11/30 06:22:46;;;;;;;6.83;6.23;;;4.00;99.90;;;;;;5055717;28;20466;-64
2021/11/30 06:25:14;;;;;;;6.97;6.27;;;4.00;99.90;;;;;;5061006;28;20490;-64
2021/11/30 06:27:42;;;;;;;6.17;5.60;;;4.00;99.90;;;;;;5060931;28;20465;-64
2021/11/30 06:30:12;;;;;;;5.93;5.43;;;4.10;99.90;;;;;;5053716;28;20460;-64
2021/11/30 06:32:40;;;;;;;6.60;5.90;;;4.10;99.90;;;;;;5060762;28;20465;-65
2021/11/30 06:35:11;;;;;;;6.40;5.80;;;4.20;99.90;;;;;;5061344;28;20552;-64
2021/11/30 06:37:38;;;;;;;6.53;5.93;;;4.10;99.90;;;;;;5061568;28;20463;-65
2021/11/30 06:40:07;;;;;;;6.40;5.80;;;4.20;99.90;;;;;;5059796;28;20489;-66
2021/11/30 06:42:36;;;;;;;5.70;4.90;;;4.30;99.90;;;;;;5058856;28;20828;-64
2021/11/30 06:45:07;;;;;;;6.50;5.90;;;4.30;99.90;;;;;;5059832;28;20520;-64
2021/11/30 06:47:36;;;;;;;5.87;5.27;;;4.40;99.90;;;;;;5060751;28;20474;-64
2021/11/30 06:50:06;;;;;;;5.57;4.97;;;4.40;99.90;;;;;;5060452;28;20458;-64
2021/11/30 06:52:33;;;;;;;6.43;5.83;;;4.40;99.90;;;;;;5060852;28;20768;-64
2021/11/30 06:55:07;;;;;;;7.40;5.37;;;4.50;99.90;;;;;;5060554;28;20544;-64
2021/11/30 06:57:35;;;;;;;6.13;5.53;;;4.50;99.90;;;;;;5060849;28;20563;-64
2021/11/30 07:00:07;;;;;;;6.10;5.40;;;4.50;99.90;;;;;;5060682;28;20785;-64
2021/11/30 07:02:37;;;;;;;7.23;6.30;;;4.50;99.90;;;;;;5060249;28;20461;-64
2021/11/30 07:05:16;;;;;;;6.53;5.90;;;4.60;99.90;;;;;;5060771;28;20608;-64
2021/11/30 07:07:53;;;;;;;6.80;6.10;;;4.60;99.90;;;;;;5060790;28;20493;-64
2021/11/30 07:10:40;;;;;;;7.60;6.30;;;4.60;99.90;;;;;;5058926;28;20462;-64
2021/11/30 07:13:28;;;;;;;6.23;5.53;;;4.60;99.90;;;;;;5059767;28;20458;-64
2021/11/30 07:15:58;;;;;;;6.63;6.03;;;4.70;99.90;;;;;;5060002;28;20508;-64
2021/11/30 07:18:28;;;;;;;7.37;6.67;;;4.70;99.90;;;;;;5060344;28;20525;-64
2021/11/30 07:20:59;;;;;;;6.47;5.87;;;4.70;99.90;;;;;;5060698;28;20462;-64
2021/11/30 07:23:30;;;;;;;6.47;5.87;;;4.80;99.90;;;;;;5060562;28;20897;-64
2021/11/30 07:25:58;;;;;;;6.43;5.83;;;4.80;99.90;;;;;;5060749;28;20501;-64
2021/11/30 07:28:29;;;;;;;6.20;5.53;;;4.80;99.90;;;;;;5060438;28;20968;-65
2021/11/30 07:30:56;;;;;;;6.23;5.63;;;4.80;99.90;;;;;;5059835;28;20791;-64
2021/11/30 07:33:24;;;;;;;5.40;4.90;;;4.80;99.90;;;;;;5060606;28;20867;-64
2021/11/30 07:35:51;;;;;;;6.83;6.10;;;4.90;99.90;;;;;;5059027;28;20557;-64
2021/11/30 07:38:21;;;;;;;6.50;5.80;;;4.90;99.90;;;;;;5059450;28;20489;-64
2021/11/30 07:40:48;;;;;;;5.20;4.70;;;4.90;99.90;;;;;;5059786;28;20877;-64
2021/11/30 07:43:18;;;;;;;6.90;6.17;;;5.00;99.90;;;;;;5060146;28;20552;-64
2021/11/30 07:45:46;;;;;;;6.23;5.63;;;5.00;99.90;;;;;;5059425;28;20502;-64
2021/11/30 07:48:13;;;;;;;6.20;5.60;;;5.00;99.90;;;;;;5059790;28;20477;-63
2021/11/30 07:50:41;;;;;;;6.30;5.70;;;5.10;99.90;;;;;;5060231;28;20490;-64
2021/11/30 07:53:11;;;;;;;7.23;6.53;;;5.10;99.90;;;;;;5059528;28;20545;-64
2021/11/30 07:55:41;;;;;;;7.50;6.53;;;5.10;99.90;;;;;;5058692;28;20577;-64
2021/11/30 07:58:10;;;;;;;7.53;6.77;;;5.10;99.90;;;;;;5059509;28;20462;-64
2021/11/30 08:00:41;;;;;;;8.43;7.53;;;5.20;99.90;;;;;;5059913;28;20462;-64
2021/11/30 08:03:09;;;;;;;7.77;7.00;;;5.20;99.90;;;;;;5059772;28;20465;-64
2021/11/30 08:05:41;;;;;;;7.50;6.37;;;5.20;99.90;;;;;;5058028;28;20571;-64
2021/11/30 08:08:13;;;;;;;8.17;6.80;;;5.30;99.90;;;;;;5047081;28;20460;-64
2021/11/30 08:10:42;;;;;;;8.03;7.07;;;5.20;99.90;;;;;;5060308;28;20493;-64
2021/11/30 08:13:10;;;;;;;7.73;6.57;;;5.30;99.90;;;;;;5059889;28;20554;-64
2021/11/30 08:15:41;;;;;;;8.63;7.70;;;5.30;99.90;;;;;;5059351;28;20773;-64
2021/11/30 08:18:08;;;;;;;7.93;7.17;;;5.40;99.90;;;;;;5063700;28;20581;-64
2021/11/30 08:20:36;;;;;;;9.57;7.93;;;5.40;99.90;;;;;;5066095;28;20547;-64
2021/11/30 08:23:06;;;;;;;8.20;7.23;;;5.40;99.90;;;;;;5059279;28;20556;-65
2021/11/30 08:25:34;;;;;;;7.37;6.63;;;5.40;99.90;;;;;;5059016;28;20543;-64
2021/11/30 08:28:03;;;;;;;9.30;7.50;;;5.50;99.90;;;;;;5059674;28;20470;-64
2021/11/30 08:30:32;;;;;;;7.70;6.87;;;5.50;99.90;;;;;;5059146;28;20462;-64
2021/11/30 08:33:03;;;;;;;6.80;6.10;;;5.50;99.90;;;;;;5058557;28;20467;-64
2021/11/30 08:35:33;;;;;;;8.47;7.30;;;5.60;99.90;;;;;;5059762;28;20535;-64
2021/11/30 08:38:03;;;;;;;8.50;7.20;;;5.60;99.90;;;;;;5059534;28;20496;-64
2021/11/30 08:40:33;;;;;;;7.90;7.10;;;5.60;99.90;;;;;;5058740;28;20604;-64
2021/11/30 08:43:09;;;;;;;8.30;7.40;;;5.60;99.90;;;;;;5056581;28;20545;-64
2021/11/30 08:45:39;;;;;;;8.60;6.90;;;5.60;99.90;;;;;;5058594;28;20552;-64
2021/11/30 08:48:07;;;;;;;7.43;6.73;;;5.70;99.90;;;;;;5059653;28;20493;-64
2021/11/30 08:50:36;;;;;;;9.17;7.83;;;5.70;99.90;;;;;;5059083;28;20454;-64
2021/11/30 08:53:04;;;;;;;7.60;6.90;;;5.70;99.90;;;;;;5045279;28;20556;-64
2021/11/30 08:55:36;;;;;;;7.30;6.60;;;5.70;99.90;;;;;;5040538;28;20463;-64
2021/11/30 08:58:03;;;;;;;6.60;5.93;;;5.80;99.90;;;;;;5039728;28;20894;-64
2021/11/30 09:00:33;;;;;;;7.77;7.00;;;5.80;99.90;;;;;;5058713;28;20524;-64
2021/11/30 09:03:00;;;;;;;8.37;7.50;;;5.80;99.90;;;;;;5064898;28;20544;-64
2021/11/30 09:05:28;;;;;;;7.00;6.30;;;5.90;99.90;;;;;;5058104;28;20494;-64
2021/11/30 09:07:56;;;;;;;8.67;6.03;;;5.90;99.90;;;;;;5059111;28;20458;-64
2021/11/30 09:10:28;;;;;;;7.83;7.10;;;5.90;99.90;;;;;;5058262;28;20462;-64
2021/11/30 09:12:56;;;;;;;7.27;6.57;;;5.90;99.90;;;;;;5059079;28;20477;-64
2021/11/30 09:15:34;;;;;;;8.73;7.60;;;6.00;99.90;;;;;;5054948;28;20534;-64
2021/11/30 09:18:02;;;;;;;8.13;7.13;;;6.00;99.90;;;;;;5043418;28;20549;-64
2021/11/30 09:20:32;;;;;;;8.47;7.50;;;6.00;99.90;;;;;;5058462;28;20489;-64
2021/11/30 09:23:03;;;;;;;7.63;6.93;;;6.10;99.90;;;;;;5058428;28;20464;-64
2021/11/30 09:25:33;;;;;;;8.70;7.80;;;6.10;99.90;;;;;;5057642;28;20469;-64
2021/11/30 09:28:04;;;;;;;8.03;7.23;;;6.10;99.90;;;;;;5058004;28;20466;-64
2021/11/30 09:30:35;;;;;;;9.07;8.17;;;6.10;99.90;;;;;;5057683;28;20512;-64
2021/11/30 09:33:04;;;;;;;7.83;7.13;;;6.20;99.90;;;;;;5058383;28;20555;-64
2021/11/30 09:35:32;;;;;;;7.80;7.00;;;6.20;99.90;;;;;;5057723;28;20549;-64
2021/11/30 09:37:59;;;;;;;8.00;7.20;;;6.20;99.90;;;;;;5057298;28;20918;-65
2021/11/30 09:40:31;;;;;;;6.77;6.17;;;6.30;99.90;;;;;;5056808;28;20516;-65
2021/11/30 09:43:01;;;;;;;9.47;7.60;;;6.30;99.90;;;;;;5057833;28;20505;-65
2021/11/30 09:45:29;;;;;;;8.53;7.73;;;6.30;99.90;;;;;;5057565;28;20466;-64
2021/11/30 09:48:02;;;;;;;7.40;6.70;;;6.30;99.90;;;;;;5058228;28;20943;-64
2021/11/30 09:50:33;;;;;;;8.27;7.47;;;6.40;99.90;;;;;;5058587;28;20537;-64
2021/11/30 09:53:03;;;;;;;7.23;6.27;;;6.40;99.90;;;;;;5057979;28;20477;-65
2021/11/30 09:55:34;;;;;;;9.10;8.00;;;6.50;99.90;;;;;;5058041;28;20506;-64
2021/11/30 09:58:01;;;;;;;9.33;8.40;;;6.50;99.90;;;;;;5058032;28;20469;-64
2021/11/30 10:00:28;;;;;;;9.47;8.57;;;6.50;99.90;;;;;;5061361;28;20515;-65
2021/11/30 10:02:59;;;;;;;9.90;8.53;;;6.50;99.90;;;;;;5061469;28;20565;-64
2021/11/30 10:05:29;;;;;;;9.70;8.43;;;6.50;99.90;;;;;;5061033;28;20494;-65
2021/11/30 10:08:00;;;;;;;9.10;8.30;;;6.60;99.90;;;;;;5061054;28;20469;-64
2021/11/30 10:10:30;;;;;;;9.60;8.60;;;6.60;99.90;;;;;;5060842;28;20472;-64
2021/11/30 10:13:14;;;;;;;9.63;8.63;;;6.60;99.90;;;;;;5061798;28;20494;-64
2021/11/30 10:15:57;;;;;;;9.03;7.70;;;6.70;99.90;;;;;;5062038;28;20462;-64
2021/11/30 10:18:39;;;;;;;10.37;9.37;;;6.70;99.90;;;;;;5061952;28;20924;-64
2021/11/30 10:21:21;;;;;;;9.13;8.27;;;6.70;99.90;;;;;;5061868;28;20850;-64
2021/11/30 10:23:55;;;;;;;6.93;5.97;;;6.80;99.90;;;;;;5042791;28;20463;-64
2021/11/30 10:26:28;;;;;;;7.90;7.13;;;6.80;99.90;;;;;;5060769;28;20462;-65
2021/11/30 10:28:59;;;;;;;9.10;7.17;;;6.90;99.90;;;;;;5062405;28;20458;-64
2021/11/30 10:31:32;;;;;;;7.03;6.40;;;6.90;99.90;;;;;;5061585;28;20478;-64
2021/11/30 10:34:28;;;;;;;6.73;6.03;;;6.80;99.90;;;;;;5062003;28;20466;-64
2021/11/30 10:36:57;;;;;;;6.77;6.13;;;6.90;99.90;;;;;;5060762;28;20556;-65
2021/11/30 10:39:27;;;;;;;5.90;5.30;;;6.90;99.90;;;;;;5061579;28;20501;-65
2021/11/30 10:42:13;;;;;;;6.90;6.20;;;6.90;99.90;;;;;;5061309;28;20477;-64
2021/11/30 10:44:40;;;;;;;5.37;4.87;;;7.00;99.90;;;;;;5060816;28;20472;-65
2021/11/30 10:47:11;;;;;;;6.90;6.20;;;7.00;99.90;;;;;;5068773;28;20548;-65
2021/11/30 10:49:47;;;;;;;5.87;5.30;;;7.00;99.90;;;;;;5070124;28;20472;-65
2021/11/30 10:52:24;;;;;;;5.57;4.60;;;7.00;99.90;;;;;;5061494;28;20465;-65
2021/11/30 10:55:06;;;;;;;6.23;4.90;;;7.10;99.90;;;;;;5061082;28;20548;-65
2021/11/30 10:57:37;;;;;;;5.30;4.80;;;7.10;99.90;;;;;;5061198;28;20466;-65
2021/11/30 11:00:12;;;;;;;4.57;4.17;;;7.20;99.90;;;;;;5060847;28;20530;-64
2021/11/30 11:02:53;;;;;;;5.57;4.87;;;7.20;99.90;;;;;;5061264;28;20472;-65
2021/11/30 11:05:28;;;;;;;4.97;4.47;;;7.20;99.90;;;;;;5061372;28;20499;-64
2021/11/30 11:08:10;;;;;;;4.97;4.47;;;7.30;99.90;;;;;;5060543;28;20939;-65
2021/11/30 11:10:45;;;;;;;4.80;4.40;;;7.30;99.90;;;;;;5060597;28;20769;-65
2021/11/30 11:13:20;;;;;;;5.17;4.67;;;7.20;99.90;;;;;;5061291;28;20485;-64
2021/11/30 11:15:52;;;;;;;4.60;4.20;;;7.30;99.90;;;;;;5060514;28;20519;-65
2021/11/30 11:18:24;;;;;;;6.40;4.40;;;7.40;99.90;;;;;;5058960;28;20556;-65
2021/11/30 11:21:09;;;;;;;5.40;4.90;;;7.40;99.90;;;;;;5060190;28;20877;-65
2021/11/30 11:23:38;;;;;;;6.30;5.70;;;7.40;99.90;;;;;;5061494;28;20470;-64
2021/11/30 11:26:22;;;;;;;5.03;4.53;;;7.40;99.90;;;;;;5060528;28;20515;-65
2021/11/30 11:28:52;;;;;;;5.40;4.90;;;7.50;99.90;;;;;;5059705;28;20466;-64
2021/11/30 11:31:20;;;;;;;5.63;5.13;;;7.50;99.90;;;;;;5059588;28;20462;-64
2021/11/30 11:33:48;;;;;;;5.90;5.40;;;7.50;99.90;;;;;;5060028;28;20505;-64
2021/11/30 11:36:24;;;;;;;5.33;4.93;;;7.50;99.90;;;;;;5059836;28;20545;-65
2021/11/30 11:38:51;;;;;;;5.00;4.50;;;7.50;99.90;;;;;;5059651;28;20522;-65
2021/11/30 11:41:23;;;;;;;4.00;3.60;;;7.60;99.90;;;;;;5059925;28;20525;-64
2021/11/30 11:43:55;;;;;;;5.00;4.50;;;7.60;99.90;;;;;;5059556;28;20489;-65
2021/11/30 11:46:25;;;;;;;5.30;4.80;;;7.60;99.90;;;;;;5060084;28;20469;-64
2021/11/30 11:48:59;;;;;;;5.67;4.57;;;7.60;99.90;;;;;;5067619;28;20467;-64
2021/11/30 11:51:40;;;;;;;5.30;4.80;;;7.70;99.90;;;;;;5068520;28;20965;-64
2021/11/30 11:54:08;;;;;;;5.00;4.50;;;7.70;99.90;;;;;;5057931;28;20469;-65
2021/11/30 11:56:39;;;;;;;4.50;4.10;;;7.70;99.90;;;;;;5059119;28;20469;-64
2021/11/30 11:59:14;;;;;;;5.83;3.90;;;7.70;99.90;;;;;;5059045;28;20544;-64
2021/11/30 12:01:44;;;;;;;4.40;4.00;;;7.60;99.90;;;;;;5039481;28;20964;-64
2021/11/30 12:04:16;;;;;;;4.60;4.10;;;7.70;99.90;;;;;;5058376;28;20495;-64
2021/11/30 12:06:53;;;;;;;4.10;3.60;;;7.70;99.90;;;;;;5059172;28;20462;-64
2021/11/30 12:09:24;;;;;;;3.57;3.27;;;7.70;99.90;;;;;;5041453;28;20884;-64
2021/11/30 12:11:56;;;;;;;3.63;3.33;;;7.70;99.90;;;;;;5057618;28;20988;-64
2021/11/30 12:14:30;;;;;;;4.07;3.67;;;7.80;99.90;;;;;;5069664;28;20552;-64
2021/11/30 12:17:21;;;;;;;4.20;3.80;;;7.80;99.90;;;;;;5058772;28;20462;-64
2021/11/30 12:19:51;;;;;;;4.73;4.23;;;7.80;99.90;;;;;;5058644;28;20815;-64
2021/11/30 12:22:47;;;;;;;3.90;3.50;;;7.80;99.90;;;;;;5056507;28;20489;-64
2021/11/30 12:25:48;;;;;;;4.93;3.60;;;7.80;99.90;;;;;;5058183;28;20466;-64
2021/11/30 12:28:36;;;;;;;3.70;3.37;;;7.90;99.90;;;;;;5053759;28;20481;-64
2021/11/30 12:31:08;;;;;;;3.73;3.33;;;7.90;99.90;;;;;;5054936;28;20585;-64
2021/11/30 12:33:39;;;;;;;3.80;3.50;;;7.90;99.90;;;;;;5058478;28;20500;-64
2021/11/30 12:36:09;;;;;;;3.40;3.10;;;7.90;99.90;;;;;;5037378;28;20462;-64
2021/11/30 12:38:40;;;;;;;4.57;3.67;;;7.90;99.90;;;;;;5076298;28;20473;-64
2021/11/30 12:41:38;;;;;;;3.80;3.30;;;7.90;99.90;;;;;;5057112;28;20490;-65
2021/11/30 12:44:10;;;;;;;4.03;3.40;;;7.90;99.90;;;;;;5043291;28;20481;-64
2021/11/30 12:46:48;;;;;;;4.50;3.67;;;7.90;99.90;;;;;;5047459;28;20555;-64
2021/11/30 12:49:33;;;;;;;3.60;3.30;;;7.90;99.90;;;;;;5053794;28;20908;-64
2021/11/30 12:52:08;;;;;;;3.37;2.80;;;7.90;99.90;;;;;;5056750;28;20469;-65
2021/11/30 12:54:39;;;;;;;3.43;3.13;;;8.00;99.90;;;;;;5056634;28;20470;-65
2021/11/30 12:57:12;;;;;;;2.80;2.53;;;8.00;99.90;;;;;;5057531;28;20614;-65
2021/11/30 13:00:00;;;;;;;3.40;3.10;;;8.00;99.90;;;;;;5057251;28;20462;-64
2021/11/30 13:02:31;;;;;;;3.53;3.23;;;8.00;99.90;;;;;;5056122;28;20913;-64
2021/11/30 13:05:21;;;;;;;3.33;3.00;;;8.00;99.90;;;;;;5056635;28;20517;-64
2021/11/30 13:08:11;;;;;;;3.30;2.97;;;8.00;99.90;;;;;;5057010;28;20501;-64
2021/11/30 13:10:51;;;;;;;3.30;3.00;;;8.10;99.90;;;;;;5057688;28;20553;-64
2021/11/30 13:13:21;;;;;;;4.17;3.77;;;8.10;99.90;;;;;;5048890;28;20839;-64
2021/11/30 13:15:55;;;;;;;3.80;3.40;;;8.10;99.90;;;;;;5056393;28;20651;-64
2021/11/30 13:18:24;;;;;;;3.77;3.40;;;8.10;99.90;;;;;;5055182;28;20502;-64